Time;durP1;ratioP1;P1;durP2;ratioP2;P2;SDS_P1;SDS_P2;PMS_P1;PMS_P2;Temp;Humidity;BMP_temperature;BMP_pressure;BME280_temperature;BME280_humidity;BME280_pressure;Samples;Min_cycle;Max_cycle;Signal;HPM_P1;HPM_P2
2024/01/22 00:01:35;;;;;;;;;5.25;4.25;;;;;6.62;52.16;102625.22;146616;615;48014;-70
2024/01/22 00:04:29;;;;;;;;;5.25;5.25;;;;;6.45;52.55;102628.75;146619;587;46020;-70
2024/01/22 00:07:30;;;;;;;;;5.25;4.75;;;;;6.29;53.25;102641.78;146617;615;47023;-71
2024/01/22 00:10:32;;;;;;;;;3.50;2.50;;;;;6.14;53.79;102632.56;146622;639;46020;-71
2024/01/22 00:13:31;;;;;;;;;4.25;4.25;;;;;6.03;54.72;102623.75;146619;622;46027;-72
2024/01/22 00:16:37;;;;;;;;;6.50;4.00;;;;;5.94;55.11;102630.53;146621;588;46010;-71
2024/01/22 00:19:43;;;;;;;;;3.25;3.25;;;;;4.98;56.18;102486.22;146618;593;46016;-70
2024/01/22 00:22:57;;;;;;;;;3.00;3.00;;;;;5.68;55.86;102635.62;146624;570;46010;-69
2024/01/22 00:26:12;;;;;;;;;2.50;2.50;;;;;5.47;56.70;102645.53;146615;563;46016;-69
2024/01/22 00:29:08;;;;;;;;;3.00;3.00;;;;;5.28;56.74;102657.28;146623;611;46024;-69
2024/01/22 00:32:15;;;;;;;;;6.00;4.00;;;;;5.22;57.56;102648.91;146621;566;46012;-69
2024/01/22 00:35:27;;;;;;;;;2.00;2.00;;;;;5.27;56.86;102650.31;146622;569;46013;-70
2024/01/22 00:38:23;;;;;;;;;5.00;4.00;;;;;5.32;57.28;102655.16;146620;631;46016;-70
2024/01/22 00:41:16;;;;;;;;;9.50;7.75;;;;;5.38;57.05;102648.84;146622;569;46014;-69
2024/01/22 00:44:09;;;;;;;;;10.50;8.50;;;;;5.41;56.93;102654.28;146614;599;46017;-69
2024/01/22 00:47:14;;;;;;;;;4.00;3.25;;;;;5.39;55.14;102661.88;146622;563;46020;-70
2024/01/22 00:50:21;;;;;;;;;7.75;7.00;;;;;5.42;55.85;102664.75;146616;598;47017;-69
2024/01/22 00:53:21;;;;;;;;;10.75;8.00;;;;;5.39;56.58;102653.22;146617;578;46010;-68
2024/01/22 00:56:23;;;;;;;;;14.25;9.75;;;;;5.39;56.95;102653.22;146708;566;46022;-68
2024/01/22 00:59:25;;;;;;;;;13.50;10.00;;;;;5.41;56.29;102649.16;146627;569;46944;-68
2024/01/22 01:02:26;;;;;;;;;4.75;4.75;;;;;5.46;54.79;102651.44;146624;582;46020;-69
2024/01/22 01:05:25;;;;;;;;;1.75;1.00;;;;;5.62;53.61;102645.28;146624;596;46017;-68
2024/01/22 01:08:31;;;;;;;;;5.00;2.50;;;;;5.81;53.57;102642.91;146629;569;46020;-68
2024/01/22 01:11:47;;;;;;;;;12.25;6.25;;;;;5.36;54.09;102540.66;146622;564;47014;-68
2024/01/22 01:14:41;;;;;;;;;8.00;7.00;;;;;6.08;54.20;102644.81;146629;634;46021;-68
2024/01/22 01:17:48;;;;;;;;;4.25;2.00;;;;;6.12;52.85;102640.09;146623;580;46016;-67
2024/01/22 01:20:48;;;;;;;;;3.75;3.00;;;;;6.07;53.24;102635.25;146624;633;46021;-72
2024/01/22 01:23:49;;;;;;;;;7.50;5.75;;;;;6.06;52.68;102630.88;146622;653;46016;-71
2024/01/22 01:26:51;;;;;;;;;3.00;3.00;;;;;6.01;53.19;102639.06;146629;570;46020;-72
2024/01/22 01:29:52;;;;;;;;;1.00;1.00;;;;;5.93;53.61;102639.03;146627;661;46012;-74
2024/01/22 01:32:48;;;;;;;;;3.00;2.00;;;;;5.86;54.05;102637.47;146632;591;46012;-74
2024/01/22 01:35:53;;;;;;;;;3.00;3.00;;;;;5.72;54.59;102612.00;146624;584;47013;-75
2024/01/22 01:38:57;;;;;;;;;5.75;4.00;;;;;5.82;54.66;102643.06;146632;604;46010;-75
2024/01/22 01:41:58;;;;;;;;;6.00;5.50;;;;;5.79;54.03;102628.22;146620;668;46922;-72
2024/01/22 01:45:04;;;;;;;;;8.75;8.25;;;;;5.77;53.72;102626.25;146632;576;46010;-71
2024/01/22 01:48:08;;;;;;;;;4.75;4.00;;;;;5.76;52.34;102633.06;146624;594;46016;-71
2024/01/22 01:51:03;;;;;;;;;3.50;3.00;;;;;5.82;52.80;102632.75;146629;585;46020;-73
2024/01/22 01:54:22;;;;;;;;;3.25;2.00;;;;;5.87;52.33;102635.81;146623;586;46016;-72
2024/01/22 01:57:17;;;;;;;;;2.00;2.00;;;;;5.88;52.13;102646.25;146625;581;46010;-74
2024/01/22 02:00:27;;;;;;;;;1.00;1.00;;;;;5.86;52.38;102640.06;146620;691;46016;-73
2024/01/22 02:03:24;;;;;;;;;1.00;1.00;;;;;5.85;52.52;102645.94;146622;587;47010;-72
2024/01/22 02:06:45;;;;;;;;;1.50;1.50;;;;;5.17;53.53;102511.22;146618;603;46016;-72
2024/01/22 02:10:08;;;;;;;;;;;;;;;;;;;;;
2024/01/22 02:13:24;;;;;;;;;2.00;2.00;;;;;5.49;54.03;102644.03;146619;725;47017;-72
2024/01/22 02:16:25;;;;;;;;;2.75;2.00;;;;;5.24;54.23;102650.91;146622;590;46026;-72
2024/01/22 02:19:32;;;;;;;;;5.50;1.00;;;;;5.08;53.58;102648.41;146620;604;46016;-73
2024/01/22 02:22:46;;;;;;;;;1.00;1.00;;;;;4.95;54.63;102655.56;146618;606;46020;-73
2024/01/22 02:25:56;;;;;;;;;1.00;1.00;;;;;4.81;54.77;102650.66;146620;573;46016;-70
2024/01/22 02:28:54;;;;;;;;;3.00;3.00;;;;;4.74;55.41;102653.34;146614;674;46020;-71
2024/01/22 02:31:52;;;;;;;;;0.25;0.00;;;;;4.71;56.41;102648.78;146711;569;46012;-71
2024/01/22 02:34:51;;;;;;;;;2.00;1.00;;;;;4.68;56.59;102652.72;146627;609;46012;-71
2024/01/22 02:37:58;;;;;;;;;1.75;1.00;;;;;4.61;56.44;102654.63;146631;585;46050;-70
2024/01/22 02:40:51;;;;;;;;;7.75;7.00;;;;;4.58;57.02;102667.16;146622;599;46016;-71
2024/01/22 02:43:46;;;;;;;;;9.00;8.00;;;;;4.58;57.09;102662.00;146629;574;46011;-71
2024/01/22 02:46:40;;;;;;;;;3.25;3.00;;;;;4.53;57.45;102655.47;146625;610;46032;-72
2024/01/22 02:49:35;;;;;;;;;4.00;2.75;;;;;4.45;57.85;102661.44;146625;614;46020;-71
2024/01/22 02:52:45;;;;;;;;;4.00;4.00;;;;;4.33;57.29;102663.63;146624;574;47012;-72
2024/01/22 02:55:40;;;;;;;;;4.50;4.00;;;;;4.21;57.09;102663.97;146631;578;46020;-69
2024/01/22 02:58:39;;;;;;;;;5.75;5.75;;;;;4.21;57.42;102667.44;146624;592;46016;-69
2024/01/22 03:01:35;;;;;;;;;9.25;9.00;;;;;4.33;57.50;102666.19;146630;600;46010;-71
2024/01/22 03:04:36;;;;;;;;;6.00;4.75;;;;;4.41;58.09;102654.16;146624;590;46016;-71
2024/01/22 03:07:30;;;;;;;;;10.50;7.00;;;;;4.47;57.54;102667.66;146627;618;46010;-71
2024/01/22 03:10:27;;;;;;;;;1.75;1.75;;;;;4.51;57.02;102676.59;146619;582;47012;-70
2024/01/22 03:13:28;;;;;;;;;3.00;3.00;;;;;4.57;56.42;102670.44;146631;567;46011;-70
2024/01/22 03:16:20;;;;;;;;;4.00;3.75;;;;;4.68;54.14;102678.41;146624;624;46913;-70
2024/01/22 03:19:18;;;;;;;;;1.75;1.75;;;;;4.76;53.88;102681.00;146630;569;46010;-71
2024/01/22 03:22:23;;;;;;;;;1.50;0.75;;;;;4.79;53.19;102672.72;146624;569;46914;-71
2024/01/22 03:25:21;;;;;;;;;2.00;1.00;;;;;4.77;53.55;102685.41;146628;607;46020;-71
2024/01/22 03:28:13;;;;;;;;;1.00;1.00;;;;;4.75;53.55;102679.19;146624;624;46016;-71
2024/01/22 03:31:11;;;;;;;;;1.00;1.00;;;;;4.83;54.18;102687.72;146621;606;46020;-71
2024/01/22 03:34:07;;;;;;;;;1.00;1.00;;;;;4.95;53.75;102677.81;146616;607;46017;-71
2024/01/22 03:37:16;;;;;;;;;3.25;1.25;;;;;5.07;54.26;102673.94;146620;599;46020;-71
2024/01/22 03:40:17;;;;;;;;;2.50;1.75;;;;;5.18;53.06;102680.22;146617;598;46913;-72
2024/01/22 03:43:12;;;;;;;;;4.00;2.75;;;;;5.25;52.99;102673.28;146622;609;46011;-71
2024/01/22 03:46:09;;;;;;;;;2.75;1.50;;;;;5.32;52.82;102669.69;146618;604;46016;-71
2024/01/22 03:49:19;;;;;;;;;8.25;7.50;;;;;5.40;52.96;102676.53;146620;588;48010;-71
2024/01/22 03:52:39;;;;;;;;;11.25;9.00;;;;;5.42;52.47;102676.69;146618;570;46917;-71
2024/01/22 03:55:35;;;;;;;;;7.75;6.25;;;;;5.35;52.80;102671.66;146622;665;46010;-71
2024/01/22 03:58:52;;;;;;;;;;;;;;;;;;;;;
2024/01/22 04:01:56;;;;;;;;;15.00;14.25;;;;;5.21;53.74;102673.72;146611;577;46020;-71
2024/01/22 04:04:57;;;;;;;;;11.75;11.25;;;;;5.26;54.00;102674.19;146608;583;46916;-72
2024/01/22 04:07:49;;;;;;;;;16.25;16.25;;;;;5.24;53.92;102691.16;146612;584;46020;-71
2024/01/22 04:11:08;;;;;;;;;14.75;12.75;;;;;4.34;54.73;102541.25;146611;605;46016;-73
2024/01/22 04:14:06;;;;;;;;;11.00;11.00;;;;;4.98;55.30;102697.03;146614;597;46037;-72
2024/01/22 04:17:11;;;;;;;;;;;;;;;;;;;;;
2024/01/22 04:20:30;;;;;;;;;20.00;16.50;;;;;4.73;56.21;102698.66;146620;577;46031;-74
2024/01/22 04:23:58;;;;;;;;;5.00;2.25;;;;;4.70;54.69;102693.22;146612;581;46016;-73
2024/01/22 04:27:03;;;;;;;;;2.50;2.50;;;;;4.80;54.86;102690.87;146623;576;46010;-71
2024/01/22 04:30:16;;;;;;;;;15.00;13.50;;;;;4.21;54.32;102563.84;146617;592;46016;-71
2024/01/22 04:33:31;;;;;;;;;9.00;7.00;;;;;4.30;54.43;102549.38;146615;591;46010;-71
2024/01/22 04:36:29;;;;;;;;;3.00;2.00;;;;;5.22;52.70;102693.53;146620;606;46014;-72
2024/01/22 04:39:33;;;;;;;;;4.00;4.00;;;;;5.31;53.06;102701.31;146622;569;46020;-69
2024/01/22 04:42:33;;;;;;;;;5.75;5.75;;;;;5.35;52.82;102710.25;146617;564;46012;-70
2024/01/22 04:45:32;;;;;;;;;11.50;8.00;;;;;5.37;52.59;102712.25;146621;602;47010;-71
2024/01/22 04:48:30;;;;;;;;;13.00;13.00;;;;;5.37;52.67;102707.09;146617;601;46034;-71
2024/01/22 04:51:26;;;;;;;;;9.50;6.75;;;;;5.38;52.43;102719.19;146615;566;46010;-72
2024/01/22 04:54:32;;;;;;;;;8.00;8.00;;;;;4.14;52.42;102501.56;146619;626;46016;-71
2024/01/22 04:57:48;;;;;;;;;16.50;16.50;;;;;5.35;52.73;102724.03;146618;581;46021;-71
2024/01/22 05:00:45;;;;;;;;;31.00;29.50;;;;;5.29;53.16;102723.38;146611;569;46018;-71
2024/01/22 05:03:45;;;;;;;;;9.25;7.00;;;;;5.26;54.05;102717.91;146613;581;46010;-75
2024/01/22 05:06:39;;;;;;;;;2.25;2.00;;;;;5.23;51.05;102726.25;146617;739;46016;-74
2024/01/22 05:09:43;;;;;;;;;2.75;2.00;;;;;5.27;49.84;102730.97;146622;593;46037;-74
2024/01/22 05:12:56;;;;;;;;;8.50;7.25;;;;;5.40;50.46;102732.25;146615;569;46017;-73
2024/01/22 05:15:56;;;;;;;;;26.25;24.25;;;;;5.51;49.62;102732.59;146619;593;46020;-73
2024/01/22 05:19:13;;;;;;;;;6.75;6.75;;;;;5.60;49.54;102737.75;146609;599;46916;-72
2024/01/22 05:22:09;;;;;;;;;6.00;4.00;;;;;5.69;49.91;102732.66;146621;620;46020;-73
2024/01/22 05:25:01;;;;;;;;;2.00;2.00;;;;;5.75;49.86;102738.44;146619;569;46017;-73
2024/01/22 05:28:06;;;;;;;;;3.00;2.00;;;;;4.97;50.20;102579.53;146618;609;46020;-72
2024/01/22 05:31:04;;;;;;;;;8.50;5.50;;;;;5.86;49.23;102730.16;146621;582;46012;-73
2024/01/22 05:34:16;;;;;;;;;5.00;4.25;;;;;5.52;50.86;102652.06;146619;730;46020;-73
2024/01/22 05:37:24;;;;;;;;;6.00;5.00;;;;;5.94;50.80;102736.13;146619;573;46012;-73
2024/01/22 05:41:06;;;;;;;;;7.00;6.00;;;;;5.55;52.00;102661.78;146624;630;46010;-73
2024/01/22 05:44:17;;;;;;;;;;;;;;;;;;;;;
2024/01/22 05:47:10;;;;;;;;;14.00;10.00;;;;;5.98;53.07;102739.19;146615;683;46010;-69
2024/01/22 05:50:09;;;;;;;;;13.50;12.25;;;;;5.97;53.71;102742.47;146611;578;46030;-69
2024/01/22 05:53:14;;;;;;;;;11.75;10.25;;;;;5.96;53.94;102732.03;146614;650;46010;-69
2024/01/22 05:56:12;;;;;;;;;9.75;9.75;;;;;5.97;54.12;102739.00;146611;615;46014;-70
2024/01/22 05:59:10;;;;;;;;;14.25;11.75;;;;;5.98;53.55;102739.19;146620;649;46020;-71
2024/01/22 06:02:08;;;;;;;;;9.25;8.00;;;;;6.00;53.31;102747.94;146611;697;46017;-70
2024/01/22 06:05:02;;;;;;;;;13.75;12.50;;;;;6.00;53.32;102742.78;146621;588;46010;-71
2024/01/22 06:08:26;;;;;;;;;9.75;7.00;;;;;6.03;53.71;102743.88;146611;577;48027;-69
2024/01/22 06:11:31;;;;;;;;;11.75;11.00;;;;;6.05;53.82;102752.66;146620;596;46020;-70
2024/01/22 06:14:26;;;;;;;;;21.50;18.00;;;;;6.07;52.98;102753.72;146609;570;46016;-70
2024/01/22 06:17:23;;;;;;;;;20.50;20.00;;;;;6.08;52.96;102753.88;146614;650;46010;-70
2024/01/22 06:20:30;;;;;;;;;13.00;10.00;;;;;6.07;52.27;102764.94;146709;565;47022;-69
2024/01/22 06:23:36;;;;;;;;;11.25;10.00;;;;;6.10;53.18;102757.50;146619;679;46012;-70
2024/01/22 06:26:29;;;;;;;;;13.00;9.75;;;;;6.08;53.60;102759.03;146623;626;46010;-69
2024/01/22 06:29:36;;;;;;;;;11.25;10.25;;;;;6.08;53.68;102764.19;146622;600;46016;-72
2024/01/22 06:32:33;;;;;;;;;11.00;10.00;;;;;6.08;53.91;102764.19;146621;564;48010;-69
2024/01/22 06:35:44;;;;;;;;;17.25;15.00;;;;;6.09;54.56;102759.94;146617;587;46016;-72
2024/01/22 06:38:39;;;;;;;;;10.50;10.50;;;;;6.06;54.82;102769.94;146615;564;47010;-70
2024/01/22 06:41:41;;;;;;;;;13.25;12.25;;;;;6.06;55.25;102777.66;146618;597;46016;-68
2024/01/22 06:44:36;;;;;;;;;13.25;13.25;;;;;6.06;55.13;102770.84;146621;586;46021;-70
2024/01/22 06:47:46;;;;;;;;;12.25;11.00;;;;;6.09;55.24;102763.44;146618;579;46016;-68
2024/01/22 06:50:45;;;;;;;;;11.25;9.00;;;;;6.14;54.32;102764.81;146621;610;46020;-69
2024/01/22 06:53:39;;;;;;;;;8.00;7.00;;;;;6.21;53.33;102774.06;146620;602;46016;-71
2024/01/22 06:56:35;;;;;;;;;3.00;2.50;;;;;6.29;51.25;102770.59;146626;569;46010;-68
2024/01/22 06:59:30;;;;;;;;;5.00;5.00;;;;;6.41;51.36;102776.97;146621;605;46016;-71
2024/01/22 07:02:37;;;;;;;;;10.50;8.50;;;;;6.54;52.42;102776.56;146628;630;46021;-70
2024/01/22 07:05:53;;;;;;;;;12.00;12.00;;;;;5.84;52.69;102635.50;146625;627;46012;-68
2024/01/22 07:08:56;;;;;;;;;9.00;7.50;;;;;6.68;53.19;102788.25;146624;611;45023;-68
2024/01/22 07:11:58;;;;;;;;;8.25;7.00;;;;;6.72;52.20;102782.63;146624;603;46016;-68
2024/01/22 07:15:04;;;;;;;;;18.75;14.00;;;;;6.12;52.14;102659.81;146630;605;46020;-68
2024/01/22 07:18:11;;;;;;;;;9.75;8.50;;;;;6.80;51.43;102781.72;146617;565;46918;-69
2024/01/22 07:21:03;;;;;;;;;10.25;7.75;;;;;6.88;50.71;102777.31;146621;590;46010;-68
2024/01/22 07:23:56;;;;;;;;;10.00;9.50;;;;;7.01;50.28;102774.28;146618;582;46012;-70
2024/01/22 07:27:02;;;;;;;;;9.00;9.00;;;;;6.36;50.76;102641.62;146619;573;46020;-74
2024/01/22 07:29:57;;;;;;;;;8.25;8.00;;;;;7.21;49.35;102781.41;146619;608;46016;-70
2024/01/22 07:33:12;;;;;;;;;8.25;5.25;;;;;7.33;49.98;102790.34;146623;604;47010;-68
2024/01/22 07:36:05;;;;;;;;;12.75;11.00;;;;;7.61;48.89;102781.00;146614;592;47012;-68
2024/01/22 07:39:09;;;;;;;;;11.00;8.75;;;;;7.73;49.64;102787.34;146615;627;47021;-68
2024/01/22 07:42:24;;;;;;;;;8.00;7.50;;;;;7.86;50.18;102790.31;146618;579;46012;-72
2024/01/22 07:45:19;;;;;;;;;9.00;7.75;;;;;8.18;49.02;102789.84;146620;594;46020;-68
2024/01/22 07:48:18;;;;;;;;;5.00;4.00;;;;;8.45;47.90;102791.56;146618;609;46016;-71
2024/01/22 07:51:15;;;;;;;;;16.25;14.75;;;;;8.57;48.07;102789.22;146621;592;46020;-69
2024/01/22 07:54:22;;;;;;;;;14.50;11.00;;;;;8.74;47.82;102795.91;146613;676;47916;-69
2024/01/22 07:57:31;;;;;;;;;;;;;;;;;;;;;
2024/01/22 08:00:38;;;;;;;;;8.25;7.75;;;;;9.02;46.45;102787.31;146617;651;46017;-70
2024/01/22 08:03:32;;;;;;;;;14.25;10.00;;;;;9.22;45.55;102790.75;146620;633;46020;-73
2024/01/22 08:06:45;;;;;;;;;15.25;11.50;;;;;9.38;45.68;102801.75;146613;604;47013;-72
2024/01/22 08:09:40;;;;;;;;;24.50;21.75;;;;;9.64;46.16;102793.69;146616;583;47020;-72
2024/01/22 08:12:35;;;;;;;;;14.00;13.00;;;;;10.01;44.72;102799.50;146608;586;47016;-73
2024/01/22 08:15:36;;;;;;;;;17.25;15.25;;;;;10.21;44.45;102789.91;146614;622;47010;-70
2024/01/22 08:18:37;;;;;;;;;19.50;16.75;;;;;10.38;44.03;102800.09;146612;593;46032;-72
2024/01/22 08:21:29;;;;;;;;;6.25;6.00;;;;;10.56;43.50;102801.66;146616;585;46020;-73
2024/01/22 08:24:35;;;;;;;;;8.50;8.50;;;;;10.57;42.83;102802.56;146619;575;46016;-71
2024/01/22 08:27:31;;;;;;;;;9.50;8.50;;;;;10.54;41.00;102795.41;146621;586;46036;-71
2024/01/22 08:30:26;;;;;;;;;8.00;8.00;;;;;10.41;41.14;102797.75;146618;594;46916;-71
2024/01/22 08:33:24;;;;;;;;;12.50;11.75;;;;;10.26;42.93;102804.19;146618;593;46010;-70
2024/01/22 08:36:22;;;;;;;;;35.25;29.75;;;;;10.31;43.20;102789.94;146611;611;47017;-70
2024/01/22 08:39:15;;;;;;;;;16.00;15.00;;;;;10.53;43.22;102797.88;146617;628;46020;-70
2024/01/22 08:42:12;;;;;;;;;8.75;8.00;;;;;10.88;42.68;102786.97;146616;681;46016;-72
2024/01/22 08:45:07;;;;;;;;;5.75;5.75;;;;;11.13;41.87;102779.50;146622;634;46020;-70
2024/01/22 08:48:01;;;;;;;;;4.00;4.00;;;;;11.33;41.48;102775.13;146618;569;46012;-71
2024/01/22 08:50:53;;;;;;;;;3.75;3.00;;;;;11.56;41.85;102776.97;146621;593;47010;-69
2024/01/22 08:54:07;;;;;;;;;3.75;3.50;;;;;11.41;43.59;102705.63;146616;571;46016;-72
2024/01/22 08:57:11;;;;;;;;;3.25;1.75;;;;;12.04;40.77;102772.97;146623;602;46020;-69
2024/01/22 09:00:12;;;;;;;;;5.00;4.50;;;;;12.27;40.53;102763.41;146616;583;46017;-70
2024/01/22 09:03:08;;;;;;;;;5.00;3.75;;;;;12.45;40.12;102757.03;146622;667;46020;-71
2024/01/22 09:06:09;;;;;;;;;8.25;5.50;;;;;12.57;39.67;102757.97;146620;590;46012;-71
2024/01/22 09:09:05;;;;;;;;;5.75;5.25;;;;;12.69;39.82;102760.59;146625;586;46010;-71
2024/01/22 09:12:15;;;;;;;;;3.00;1.75;;;;;12.79;37.06;102754.38;146615;599;46916;-72
2024/01/22 09:15:25;;;;;;;;;5.25;5.00;;;;;12.66;37.62;102744.75;146620;588;47010;-70
2024/01/22 09:18:27;;;;;;;;;2.50;2.25;;;;;12.45;37.67;102744.03;146617;582;46016;-70
2024/01/22 09:21:32;;;;;;;;;3.00;2.00;;;;;12.32;37.54;102743.88;146621;734;46011;-70
2024/01/22 09:24:35;;;;;;;;;1.00;0.50;;;;;12.36;38.57;102740.72;146616;563;46012;-71
2024/01/22 09:27:59;;;;;;;;;2.25;2.25;;;;;12.48;37.77;102747.75;146621;602;47013;-72
2024/01/22 09:30:57;;;;;;;;;2.00;2.00;;;;;12.58;36.65;102749.34;146619;566;46014;-71
2024/01/22 09:34:12;;;;;;;;;9.00;9.00;;;;;12.39;40.43;102739.25;146621;569;47010;-71
2024/01/22 09:37:17;;;;;;;;;4.25;3.75;;;;;12.32;37.72;102739.59;146618;627;46014;-70
2024/01/22 09:40:25;;;;;;;;;;;;;;;;;;;;;
2024/01/22 09:43:23;;;;;;;;;1.75;1.75;;;;;12.18;37.85;102735.00;146614;633;46016;-71
2024/01/22 09:46:35;;;;;;;;;4.75;3.75;;;;;12.27;37.40;102748.72;146622;576;47010;-70
2024/01/22 09:49:29;;;;;;;;;7.50;7.00;;;;;12.36;38.74;102726.00;146619;564;46016;-71
2024/01/22 09:52:21;;;;;;;;;2.75;2.75;;;;;12.51;36.84;102738.37;146623;565;46020;-70
2024/01/22 09:55:56;;;;;;;;;5.50;5.50;;;;;12.61;36.61;102725.25;146617;577;47012;-71
2024/01/22 09:59:08;;;;;;;;;70.00;53.50;;;;;12.70;37.63;102734.66;146618;564;46021;-71
2024/01/22 10:02:00;;;;;;;;;3.75;3.75;;;;;12.80;36.40;102728.44;146610;586;46917;-71
2024/01/22 10:04:56;;;;;;;;;4.75;4.75;;;;;12.30;37.40;102625.78;146622;635;46011;-70
2024/01/22 10:08:08;;;;;;;;;22.00;19.00;;;;;12.94;36.42;102719.94;146616;633;46012;-70
2024/01/22 10:11:03;;;;;;;;;8.00;7.00;;;;;12.76;36.27;102716.00;146618;569;46020;-71
2024/01/22 10:13:57;;;;;;;;;6.00;5.25;;;;;12.53;36.75;102721.19;146618;588;46012;-71
2024/01/22 10:16:56;;;;;;;;;6.25;5.00;;;;;12.43;37.12;102736.13;146620;621;46010;-71
2024/01/22 10:20:10;;;;;;;;;3.75;3.25;;;;;12.44;41.22;102714.50;146621;620;46013;-71
2024/01/22 10:23:16;;;;;;;;;7.75;4.75;;;;;12.61;38.31;102713.16;146621;565;46010;-71
2024/01/22 10:26:16;;;;;;;;;4.00;3.75;;;;;12.90;37.00;102717.03;146617;599;46016;-71
2024/01/22 10:29:43;;;;;;;;;2.00;1.25;;;;;12.97;38.51;102707.97;146623;709;46021;-71
2024/01/22 10:33:23;;;;;;;;;9.25;9.00;;;;;12.72;40.77;102711.34;146617;575;46016;-71
2024/01/22 10:36:26;;;;;;;;;6.75;4.75;;;;;12.52;39.93;102701.16;146621;578;46021;-72
2024/01/22 10:39:22;;;;;;;;;4.75;4.00;;;;;12.42;36.40;102700.44;146617;566;46016;-70
2024/01/22 10:42:21;;;;;;;;;5.00;3.25;;;;;12.15;37.53;102706.16;146625;606;45031;-72
2024/01/22 10:45:44;;;;;;;;;8.75;8.25;;;;;11.95;37.71;102697.75;146612;569;47917;-72
2024/01/22 10:48:42;;;;;;;;;7.50;5.00;;;;;11.67;33.74;102699.88;146620;626;47010;-70
2024/01/22 10:51:50;;;;;;;;;0.50;0.00;;;;;11.16;33.30;102700.16;146618;622;45021;-71
2024/01/22 10:54:45;;;;;;;;;4.00;4.00;;;;;10.77;36.11;102698.72;146624;555;46010;-70
2024/01/22 10:57:57;;;;;;;;;23.00;21.25;;;;;10.61;38.27;102693.06;146617;564;47012;-71
2024/01/22 11:00:49;;;;;;;;;3.75;3.00;;;;;10.52;38.27;102689.72;146618;623;46012;-73
2024/01/22 11:03:51;;;;;;;;;5.25;4.50;;;;;10.67;40.22;102690.06;146618;612;46016;-71
2024/01/22 11:06:51;;;;;;;;;21.00;17.50;;;;;10.77;38.54;102677.97;146621;628;46010;-71
2024/01/22 11:10:04;;;;;;;;;1.50;1.50;;;;;10.93;39.87;102664.53;146617;720;46016;-73
2024/01/22 11:13:04;;;;;;;;;15.00;13.00;;;;;11.15;39.57;102661.06;146620;611;46021;-71
2024/01/22 11:16:04;;;;;;;;;15.75;12.50;;;;;11.42;37.48;102658.06;146619;569;46012;-72
2024/01/22 11:19:10;;;;;;;;;22.75;19.00;;;;;11.71;38.71;102654.22;146618;594;46021;-72
2024/01/22 11:22:37;;;;;;;;;5.50;5.50;;;;;12.09;41.25;102651.13;146618;579;46014;-72
2024/01/22 11:25:33;;;;;;;;;5.50;2.00;;;;;12.43;37.26;102652.84;146619;603;46020;-72
2024/01/22 11:28:40;;;;;;;;;10.50;9.25;;;;;12.65;37.21;102649.25;146618;570;46918;-73
2024/01/22 11:31:46;;;;;;;;;9.75;7.00;;;;;12.50;33.63;102654.22;146620;612;46020;-71
2024/01/22 11:34:47;;;;;;;;;3.25;2.75;;;;;12.00;35.15;102651.31;146617;564;46016;-72
2024/01/22 11:37:48;;;;;;;;;10.25;10.25;;;;;11.46;37.27;102654.91;146617;569;46020;-72
2024/01/22 11:41:11;;;;;;;;;11.50;11.25;;;;;11.33;39.70;102645.25;146616;644;46015;-71
2024/01/22 11:44:07;;;;;;;;;10.50;9.75;;;;;11.35;39.25;102647.09;146618;619;46020;-70
2024/01/22 11:47:18;;;;;;;;;7.25;5.00;;;;;11.24;40.36;102643.63;146615;644;46917;-72
2024/01/22 11:50:24;;;;;;;;;9.00;5.00;;;;;11.04;37.87;102631.66;146622;697;46010;-70
2024/01/22 11:53:26;;;;;;;;;8.50;8.50;;;;;10.80;36.57;102638.38;146619;632;46012;-70
2024/01/22 11:56:41;;;;;;;;;8.00;8.00;;;;;10.49;38.32;102622.91;146621;630;46011;-72
2024/01/22 11:59:39;;;;;;;;;2.25;1.00;;;;;10.24;36.01;102645.00;146621;573;46012;-71
2024/01/22 12:02:44;;;;;;;;;8.50;7.75;;;;;10.05;37.96;102629.59;146624;620;45028;-72
2024/01/22 12:05:41;;;;;;;;;4.25;3.75;;;;;9.94;37.50;102627.00;146619;578;46014;-72
2024/01/22 12:08:44;;;;;;;;;5.25;3.75;;;;;10.03;39.81;102637.25;146621;634;46012;-71
2024/01/22 12:12:03;;;;;;;;;5.00;5.00;;;;;10.25;41.68;102618.28;146617;609;46918;-71
2024/01/22 12:15:24;;;;;;;;;10.25;6.50;;;;;10.75;42.59;102621.56;146620;607;46020;-72
2024/01/22 12:18:27;;;;;;;;;3.00;2.00;;;;;11.01;40.63;102611.56;146618;630;46016;-72
2024/01/22 12:21:29;;;;;;;;;5.50;5.00;;;;;11.08;40.94;102608.66;146619;579;47010;-71
2024/01/22 12:24:38;;;;;;;;;7.00;3.50;;;;;11.05;41.48;102610.13;146616;589;47016;-72
2024/01/22 12:27:40;;;;;;;;;4.50;3.25;;;;;10.94;39.64;102604.09;146621;564;47012;-71
2024/01/22 12:31:03;;;;;;;;;5.00;4.00;;;;;10.82;40.42;102598.81;146615;626;46920;-71
2024/01/22 12:34:39;;;;;;;;;3.50;2.50;;;;;10.75;41.33;102612.09;146618;564;46030;-72
2024/01/22 12:37:42;;;;;;;;;6.00;5.00;;;;;10.99;39.67;102599.25;146619;657;46012;-72
2024/01/22 12:40:39;;;;;;;;;5.00;3.75;;;;;11.40;38.55;102598.97;146619;582;46021;-73
2024/01/22 12:43:38;;;;;;;;;5.25;4.25;;;;;11.86;37.53;102602.56;146612;581;48016;-73
2024/01/22 12:46:45;;;;;;;;;;;;;;;;;;;;;
2024/01/22 12:49:46;;;;;;;;;5.50;3.50;;;;;12.63;38.31;102612.69;146618;647;46013;-72
2024/01/22 12:52:43;;;;;;;;;5.25;4.00;;;;;12.98;35.64;102601.28;146619;570;47010;-73
2024/01/22 12:55:41;;;;;;;;;5.25;4.75;;;;;12.98;34.06;102590.88;146614;566;46016;-72
2024/01/22 12:58:46;;;;;;;;;7.75;6.25;;;;;12.67;37.17;102606.00;146620;579;47010;-71
2024/01/22 13:01:44;;;;;;;;;7.50;7.25;;;;;12.41;36.09;102606.69;146619;563;46012;-73
2024/01/22 13:04:39;;;;;;;;;5.75;5.25;;;;;12.56;36.94;102610.44;146619;596;46021;-70
2024/01/22 13:07:35;;;;;;;;;2.50;2.50;;;;;12.78;34.46;102612.87;146617;605;46917;-72
2024/01/22 13:10:33;;;;;;;;;6.00;4.00;;;;;12.99;35.69;102603.13;146614;605;46021;-71
2024/01/22 13:13:52;;;;;;;;;6.25;4.50;;;;;13.24;35.65;102605.75;146616;569;47012;-72
2024/01/22 13:17:03;;;;;;;;;;;;;;;;;;;;;
2024/01/22 13:20:12;;;;;;;;;4.00;4.00;;;;;13.81;35.74;102621.03;146614;590;46033;-72
2024/01/22 13:23:10;;;;;;;;;11.75;10.75;;;;;13.50;35.65;102508.56;146620;589;46010;-71
2024/01/22 13:26:01;;;;;;;;;5.25;5.00;;;;;14.23;35.32;102603.84;146608;648;46017;-73
2024/01/22 13:28:59;;;;;;;;;9.50;9.50;;;;;14.39;34.50;102612.69;146610;584;48012;-71
2024/01/22 13:31:54;;;;;;;;;12.00;11.00;;;;;14.51;33.81;102603.09;146608;577;48012;-72
2024/01/22 13:34:54;;;;;;;;;21.75;20.75;;;;;14.54;33.66;102600.69;146608;651;46011;-72
2024/01/22 13:38:03;;;;;;;;;19.50;14.50;;;;;13.88;32.38;102497.19;146606;597;47016;-73
2024/01/22 13:41:21;;;;;;;;;11.00;9.75;;;;;14.38;33.79;102617.00;146603;606;47010;-72
2024/01/22 13:44:31;;;;;;;;;10.00;9.00;;;;;14.31;33.60;102600.06;146612;634;47012;-71
2024/01/22 13:47:33;;;;;;;;;7.00;6.00;;;;;14.36;34.00;102596.84;146612;612;47010;-72
2024/01/22 13:50:38;;;;;;;;;4.25;4.25;;;;;14.36;35.05;102600.38;146614;564;46917;-73
2024/01/22 13:53:31;;;;;;;;;12.00;10.00;;;;;14.29;34.98;102605.97;146614;582;46020;-73
2024/01/22 13:56:23;;;;;;;;;17.50;15.50;;;;;14.39;34.82;102604.88;146607;629;46017;-73
2024/01/22 13:59:29;;;;;;;;;9.50;8.00;;;;;14.48;34.85;102605.47;146610;653;47010;-73
2024/01/22 14:02:32;;;;;;;;;12.50;11.50;;;;;14.47;36.44;102603.66;146609;596;47012;-72
2024/01/22 14:05:30;;;;;;;;;11.50;10.75;;;;;14.44;35.04;102593.03;146610;596;46020;-72
2024/01/22 14:08:30;;;;;;;;;8.75;8.75;;;;;14.43;35.37;102606.91;146609;661;46014;-72
2024/01/22 14:11:36;;;;;;;;;20.75;20.75;;;;;14.43;34.92;102601.69;146605;606;47021;-74
2024/01/22 14:14:40;;;;;;;;;16.25;15.25;;;;;14.31;36.67;102597.44;146608;579;46916;-72
2024/01/22 14:18:07;;;;;;;;;11.25;9.75;;;;;14.16;35.20;102596.44;146608;577;47011;-71
2024/01/22 14:21:28;;;;;;;;;11.00;11.00;;;;;13.92;36.39;102610.44;146634;653;45031;-73
2024/01/22 14:24:33;;;;;;;;;18.00;17.00;;;;;13.75;38.08;102610.19;146633;668;45021;-73
2024/01/22 14:27:44;;;;;;;;;10.50;10.00;;;;;13.57;36.40;102606.31;146631;577;46012;-72